sensor_id;sensor_type;location;lat;lon;timestamp;P1;durP1;ratioP1;P2;durP2;ratioP2
20173;SDS011;10246;50.620;7.232;2022-07-06T00:02:09;3.30;;;1.33;;
20173;SDS011;10246;50.620;7.232;2022-07-06T00:04:36;3.10;;;1.50;;
20173;SDS011;10246;50.620;7.232;2022-07-06T00:07:02;3.10;;;1.30;;
20173;SDS011;10246;50.620;7.232;2022-07-06T00:09:29;4.40;;;1.50;;
20173;SDS011;10246;50.620;7.232;2022-07-06T00:11:56;3.37;;;1.27;;
20173;SDS011;10246;50.620;7.232;2022-07-06T00:14:24;1.93;;;1.30;;
20173;SDS011;10246;50.620;7.232;2022-07-06T00:16:51;3.17;;;1.43;;
20173;SDS011;10246;50.620;7.232;2022-07-06T00:19:18;1.57;;;1.37;;
20173;SDS011;10246;50.620;7.232;2022-07-06T00:21:44;2.50;;;1.30;;
20173;SDS011;10246;50.620;7.232;2022-07-06T00:24:11;2.57;;;1.30;;
20173;SDS011;10246;50.620;7.232;2022-07-06T00:26:38;3.77;;;1.33;;
20173;SDS011;10246;50.620;7.232;2022-07-06T00:29:04;2.63;;;1.60;;
20173;SDS011;10246;50.620;7.232;2022-07-06T00:31:32;4.13;;;1.73;;
20173;SDS011;10246;50.620;7.232;2022-07-06T00:34:00;2.80;;;1.47;;
20173;SDS011;10246;50.620;7.232;2022-07-06T00:36:26;3.67;;;1.60;;
20173;SDS011;10246;50.620;7.232;2022-07-06T00:38:53;4.60;;;1.50;;
20173;SDS011;10246;50.620;7.232;2022-07-06T00:41:20;1.83;;;1.40;;
20173;SDS011;10246;50.620;7.232;2022-07-06T00:43:47;2.93;;;1.60;;
20173;SDS011;10246;50.620;7.232;2022-07-06T00:46:20;2.10;;;1.20;;
20173;SDS011;10246;50.620;7.232;2022-07-06T00:48:52;2.90;;;1.67;;
20173;SDS011;10246;50.620;7.232;2022-07-06T00:51:19;3.93;;;1.60;;
20173;SDS011;10246;50.620;7.232;2022-07-06T00:53:48;2.57;;;1.83;;
20173;SDS011;10246;50.620;7.232;2022-07-06T00:56:15;2.80;;;1.80;;
20173;SDS011;10246;50.620;7.232;2022-07-06T00:58:42;2.73;;;1.63;;
20173;SDS011;10246;50.620;7.232;2022-07-06T01:01:10;3.40;;;1.70;;
20173;SDS011;10246;50.620;7.232;2022-07-06T01:03:37;3.17;;;1.80;;
20173;SDS011;10246;50.620;7.232;2022-07-06T01:06:05;3.43;;;1.73;;
20173;SDS011;10246;50.620;7.232;2022-07-06T01:08:31;2.00;;;1.67;;
20173;SDS011;10246;50.620;7.232;2022-07-06T01:10:59;1.77;;;1.50;;
20173;SDS011;10246;50.620;7.232;2022-07-06T01:13:25;2.60;;;1.87;;
20173;SDS011;10246;50.620;7.232;2022-07-06T01:15:53;5.67;;;1.83;;
20173;SDS011;10246;50.620;7.232;2022-07-06T01:18:20;2.93;;;1.73;;
20173;SDS011;10246;50.620;7.232;2022-07-06T01:20:48;3.00;;;1.70;;
20173;SDS011;10246;50.620;7.232;2022-07-06T01:23:15;2.23;;;1.60;;
20173;SDS011;10246;50.620;7.232;2022-07-06T01:25:42;2.53;;;1.50;;
20173;SDS011;10246;50.620;7.232;2022-07-06T01:28:09;3.10;;;1.60;;
20173;SDS011;10246;50.620;7.232;2022-07-06T01:30:36;1.73;;;1.57;;
20173;SDS011;10246;50.620;7.232;2022-07-06T01:33:02;2.97;;;1.70;;
20173;SDS011;10246;50.620;7.232;2022-07-06T01:35:29;3.77;;;1.80;;
20173;SDS011;10246;50.620;7.232;2022-07-06T01:38:00;2.63;;;1.60;;
20173;SDS011;10246;50.620;7.232;2022-07-06T01:40:27;2.33;;;1.37;;
20173;SDS011;10246;50.620;7.232;2022-07-06T01:42:54;3.23;;;1.40;;
20173;SDS011;10246;50.620;7.232;2022-07-06T01:45:20;3.20;;;1.47;;
20173;SDS011;10246;50.620;7.232;2022-07-06T01:47:47;3.50;;;1.60;;
20173;SDS011;10246;50.620;7.232;2022-07-06T01:50:14;2.40;;;1.70;;
20173;SDS011;10246;50.620;7.232;2022-07-06T01:52:41;3.30;;;1.77;;
20173;SDS011;10246;50.620;7.232;2022-07-06T01:55:09;1.30;;;1.20;;
20173;SDS011;10246;50.620;7.232;2022-07-06T01:57:36;3.07;;;1.53;;
20173;SDS011;10246;50.620;7.232;2022-07-06T02:00:04;2.57;;;1.50;;
20173;SDS011;10246;50.620;7.232;2022-07-06T02:02:32;4.07;;;1.70;;
20173;SDS011;10246;50.620;7.232;2022-07-06T02:04:59;2.80;;;1.50;;
20173;SDS011;10246;50.620;7.232;2022-07-06T02:07:25;2.23;;;1.57;;
20173;SDS011;10246;50.620;7.232;2022-07-06T02:09:52;2.07;;;1.50;;
20173;SDS011;10246;50.620;7.232;2022-07-06T02:12:20;3.60;;;1.83;;
20173;SDS011;10246;50.620;7.232;2022-07-06T02:14:47;2.20;;;1.70;;
20173;SDS011;10246;50.620;7.232;2022-07-06T02:17:14;2.30;;;1.80;;
20173;SDS011;10246;50.620;7.232;2022-07-06T02:19:40;3.50;;;1.80;;
20173;SDS011;10246;50.620;7.232;2022-07-06T02:22:07;2.97;;;1.77;;
20173;SDS011;10246;50.620;7.232;2022-07-06T02:24:34;3.27;;;1.53;;
20173;SDS011;10246;50.620;7.232;2022-07-06T02:27:00;2.00;;;1.63;;
20173;SDS011;10246;50.620;7.232;2022-07-06T02:29:29;1.77;;;1.50;;
20173;SDS011;10246;50.620;7.232;2022-07-06T02:31:55;2.97;;;1.80;;
20173;SDS011;10246;50.620;7.232;2022-07-06T02:34:22;2.00;;;1.67;;
20173;SDS011;10246;50.620;7.232;2022-07-06T02:36:49;2.13;;;1.30;;
20173;SDS011;10246;50.620;7.232;2022-07-06T02:39:15;3.93;;;1.70;;
20173;SDS011;10246;50.620;7.232;2022-07-06T02:41:42;3.73;;;1.90;;
20173;SDS011;10246;50.620;7.232;2022-07-06T02:44:09;1.83;;;1.60;;
20173;SDS011;10246;50.620;7.232;2022-07-06T02:46:37;3.50;;;1.60;;
20173;SDS011;10246;50.620;7.232;2022-07-06T02:49:04;3.07;;;1.90;;
20173;SDS011;10246;50.620;7.232;2022-07-06T02:51:30;1.53;;;1.43;;
20173;SDS011;10246;50.620;7.232;2022-07-06T02:53:57;8.90;;;1.90;;
20173;SDS011;10246;50.620;7.232;2022-07-06T02:56:24;3.07;;;1.80;;
20173;SDS011;10246;50.620;7.232;2022-07-06T02:58:50;2.83;;;1.57;;
20173;SDS011;10246;50.620;7.232;2022-07-06T03:01:17;1.60;;;1.50;;
20173;SDS011;10246;50.620;7.232;2022-07-06T03:03:46;5.17;;;1.80;;
20173;SDS011;10246;50.620;7.232;2022-07-06T03:06:12;2.77;;;1.70;;
20173;SDS011;10246;50.620;7.232;2022-07-06T03:08:39;2.20;;;1.60;;
20173;SDS011;10246;50.620;7.232;2022-07-06T03:11:06;2.00;;;1.70;;
20173;SDS011;10246;50.620;7.232;2022-07-06T03:13:33;3.63;;;2.10;;
20173;SDS011;10246;50.620;7.232;2022-07-06T03:16:00;2.83;;;1.90;;
20173;SDS011;10246;50.620;7.232;2022-07-06T03:18:27;3.63;;;1.80;;
20173;SDS011;10246;50.620;7.232;2022-07-06T03:20:55;2.20;;;1.70;;
20173;SDS011;10246;50.620;7.232;2022-07-06T03:23:22;3.07;;;1.90;;
20173;SDS011;10246;50.620;7.232;2022-07-06T03:25:48;2.87;;;1.80;;
20173;SDS011;10246;50.620;7.232;2022-07-06T03:28:15;3.20;;;1.80;;
20173;SDS011;10246;50.620;7.232;2022-07-06T03:30:42;4.70;;;1.70;;
20173;SDS011;10246;50.620;7.232;2022-07-06T03:33:08;3.50;;;2.20;;
20173;SDS011;10246;50.620;7.232;2022-07-06T03:35:35;3.90;;;2.00;;
20173;SDS011;10246;50.620;7.232;2022-07-06T03:38:03;2.60;;;1.77;;
20173;SDS011;10246;50.620;7.232;2022-07-06T03:40:30;2.30;;;2.10;;
20173;SDS011;10246;50.620;7.232;2022-07-06T03:42:57;3.03;;;1.90;;
20173;SDS011;10246;50.620;7.232;2022-07-06T03:45:24;3.53;;;1.77;;
20173;SDS011;10246;50.620;7.232;2022-07-06T03:47:51;3.20;;;2.00;;
20173;SDS011;10246;50.620;7.232;2022-07-06T03:50:18;4.63;;;2.20;;
20173;SDS011;10246;50.620;7.232;2022-07-06T03:52:45;3.17;;;1.93;;
20173;SDS011;10246;50.620;7.232;2022-07-06T03:55:13;2.90;;;1.93;;
20173;SDS011;10246;50.620;7.232;2022-07-06T03:57:40;4.43;;;2.20;;
20173;SDS011;10246;50.620;7.232;2022-07-06T04:00:07;3.10;;;2.13;;
20173;SDS011;10246;50.620;7.232;2022-07-06T04:02:35;2.10;;;1.90;;
20173;SDS011;10246;50.620;7.232;2022-07-06T04:05:01;2.30;;;1.70;;
20173;SDS011;10246;50.620;7.232;2022-07-06T04:07:28;4.70;;;1.93;;
20173;SDS011;10246;50.620;7.232;2022-07-06T04:09:55;2.80;;;2.07;;
20173;SDS011;10246;50.620;7.232;2022-07-06T04:12:23;2.73;;;1.60;;
20173;SDS011;10246;50.620;7.232;2022-07-06T04:14:50;2.50;;;1.63;;
20173;SDS011;10246;50.620;7.232;2022-07-06T04:17:16;1.90;;;1.70;;
20173;SDS011;10246;50.620;7.232;2022-07-06T04:20:01;1.93;;;1.70;;
20173;SDS011;10246;50.620;7.232;2022-07-06T04:22:28;3.40;;;1.70;;
20173;SDS011;10246;50.620;7.232;2022-07-06T04:24:54;2.23;;;1.60;;
20173;SDS011;10246;50.620;7.232;2022-07-06T04:27:21;2.73;;;1.50;;
20173;SDS011;10246;50.620;7.232;2022-07-06T04:29:49;2.93;;;1.70;;
20173;SDS011;10246;50.620;7.232;2022-07-06T04:32:16;2.03;;;1.53;;
20173;SDS011;10246;50.620;7.232;2022-07-06T04:34:43;1.90;;;1.70;;
20173;SDS011;10246;50.620;7.232;2022-07-06T04:37:09;3.73;;;1.90;;
20173;SDS011;10246;50.620;7.232;2022-07-06T04:39:36;3.13;;;1.97;;
20173;SDS011;10246;50.620;7.232;2022-07-06T04:42:03;2.87;;;1.63;;
20173;SDS011;10246;50.620;7.232;2022-07-06T04:44:30;2.07;;;1.80;;
20173;SDS011;10246;50.620;7.232;2022-07-06T04:46:58;3.57;;;1.80;;
20173;SDS011;10246;50.620;7.232;2022-07-06T04:49:24;2.23;;;1.90;;
20173;SDS011;10246;50.620;7.232;2022-07-06T04:51:51;3.43;;;2.00;;
20173;SDS011;10246;50.620;7.232;2022-07-06T04:54:18;2.97;;;1.73;;
20173;SDS011;10246;50.620;7.232;2022-07-06T04:56:45;2.97;;;1.90;;
20173;SDS011;10246;50.620;7.232;2022-07-06T04:59:12;4.27;;;2.00;;
20173;SDS011;10246;50.620;7.232;2022-07-06T05:01:40;3.80;;;1.87;;
20173;SDS011;10246;50.620;7.232;2022-07-06T05:04:08;1.90;;;1.50;;
20173;SDS011;10246;50.620;7.232;2022-07-06T05:06:34;3.13;;;2.00;;
20173;SDS011;10246;50.620;7.232;2022-07-06T05:09:01;3.73;;;1.87;;
20173;SDS011;10246;50.620;7.232;2022-07-06T05:11:28;2.63;;;2.00;;
20173;SDS011;10246;50.620;7.232;2022-07-06T05:13:55;3.73;;;2.20;;
20173;SDS011;10246;50.620;7.232;2022-07-06T05:16:22;4.13;;;2.10;;
20173;SDS011;10246;50.620;7.232;2022-07-06T05:18:48;2.90;;;1.87;;
20173;SDS011;10246;50.620;7.232;2022-07-06T05:21:17;3.30;;;2.10;;
20173;SDS011;10246;50.620;7.232;2022-07-06T05:23:43;2.03;;;1.73;;
20173;SDS011;10246;50.620;7.232;2022-07-06T05:26:10;6.83;;;1.97;;
20173;SDS011;10246;50.620;7.232;2022-07-06T05:28:37;5.97;;;1.80;;
20173;SDS011;10246;50.620;7.232;2022-07-06T05:31:03;2.87;;;2.00;;
20173;SDS011;10246;50.620;7.232;2022-07-06T05:33:30;3.30;;;2.23;;
20173;SDS011;10246;50.620;7.232;2022-07-06T05:35:57;2.73;;;1.93;;
20173;SDS011;10246;50.620;7.232;2022-07-06T05:38:25;3.80;;;1.90;;
20173;SDS011;10246;50.620;7.232;2022-07-06T05:40:52;2.67;;;2.10;;
20173;SDS011;10246;50.620;7.232;2022-07-06T05:43:19;5.60;;;2.20;;
20173;SDS011;10246;50.620;7.232;2022-07-06T05:45:46;3.23;;;2.10;;
20173;SDS011;10246;50.620;7.232;2022-07-06T05:48:12;4.07;;;2.33;;
20173;SDS011;10246;50.620;7.232;2022-07-06T05:50:56;5.03;;;1.97;;
20173;SDS011;10246;50.620;7.232;2022-07-06T05:53:23;5.33;;;2.20;;
20173;SDS011;10246;50.620;7.232;2022-07-06T05:55:51;3.90;;;2.23;;
20173;SDS011;10246;50.620;7.232;2022-07-06T05:58:18;3.77;;;2.20;;
20173;SDS011;10246;50.620;7.232;2022-07-06T06:00:45;3.10;;;1.70;;
20173;SDS011;10246;50.620;7.232;2022-07-06T06:03:12;5.60;;;2.00;;
20173;SDS011;10246;50.620;7.232;2022-07-06T06:05:39;2.73;;;1.90;;
20173;SDS011;10246;50.620;7.232;2022-07-06T06:08:06;3.40;;;2.00;;
20173;SDS011;10246;50.620;7.232;2022-07-06T06:10:33;3.63;;;2.17;;
20173;SDS011;10246;50.620;7.232;2022-07-06T06:13:01;4.47;;;2.03;;
20173;SDS011;10246;50.620;7.232;2022-07-06T06:15:28;6.13;;;2.33;;
20173;SDS011;10246;50.620;7.232;2022-07-06T06:17:55;3.10;;;1.80;;
20173;SDS011;10246;50.620;7.232;2022-07-06T06:20:21;3.27;;;1.97;;
20173;SDS011;10246;50.620;7.232;2022-07-06T06:22:49;5.43;;;2.00;;
20173;SDS011;10246;50.620;7.232;2022-07-06T06:25:18;3.30;;;2.10;;
20173;SDS011;10246;50.620;7.232;2022-07-06T06:27:46;3.80;;;2.00;;
20173;SDS011;10246;50.620;7.232;2022-07-06T06:30:14;4.30;;;2.10;;
20173;SDS011;10246;50.620;7.232;2022-07-06T06:32:41;3.37;;;1.63;;
20173;SDS011;10246;50.620;7.232;2022-07-06T06:35:08;2.83;;;1.83;;
20173;SDS011;10246;50.620;7.232;2022-07-06T06:37:35;2.70;;;2.07;;
20173;SDS011;10246;50.620;7.232;2022-07-06T06:40:02;3.03;;;1.60;;
20173;SDS011;10246;50.620;7.232;2022-07-06T06:42:31;3.80;;;1.90;;
20173;SDS011;10246;50.620;7.232;2022-07-06T06:44:58;2.27;;;1.50;;
20173;SDS011;10246;50.620;7.232;2022-07-06T06:47:26;2.77;;;1.70;;
20173;SDS011;10246;50.620;7.232;2022-07-06T06:49:52;4.67;;;1.70;;
20173;SDS011;10246;50.620;7.232;2022-07-06T06:52:19;6.10;;;2.23;;
20173;SDS011;10246;50.620;7.232;2022-07-06T06:54:46;2.97;;;1.83;;
20173;SDS011;10246;50.620;7.232;2022-07-06T06:57:13;5.60;;;1.50;;
20173;SDS011;10246;50.620;7.232;2022-07-06T06:59:39;2.67;;;1.40;;
20173;SDS011;10246;50.620;7.232;2022-07-06T07:02:06;4.90;;;1.70;;
20173;SDS011;10246;50.620;7.232;2022-07-06T07:04:34;5.00;;;1.90;;
20173;SDS011;10246;50.620;7.232;2022-07-06T07:07:01;4.17;;;1.73;;
20173;SDS011;10246;50.620;7.232;2022-07-06T07:09:28;2.77;;;1.60;;
20173;SDS011;10246;50.620;7.232;2022-07-06T07:11:55;3.60;;;1.60;;
20173;SDS011;10246;50.620;7.232;2022-07-06T07:14:22;4.53;;;1.40;;
20173;SDS011;10246;50.620;7.232;2022-07-06T07:16:49;3.33;;;1.53;;
20173;SDS011;10246;50.620;7.232;2022-07-06T07:19:16;4.40;;;1.60;;
20173;SDS011;10246;50.620;7.232;2022-07-06T07:21:44;3.27;;;1.50;;
20173;SDS011;10246;50.620;7.232;2022-07-06T07:24:11;4.20;;;1.57;;
20173;SDS011;10246;50.620;7.232;2022-07-06T07:26:37;3.40;;;1.50;;
20173;SDS011;10246;50.620;7.232;2022-07-06T07:29:04;2.83;;;1.40;;
20173;SDS011;10246;50.620;7.232;2022-07-06T07:31:31;2.70;;;1.70;;
20173;SDS011;10246;50.620;7.232;2022-07-06T07:33:58;3.00;;;1.50;;
20173;SDS011;10246;50.620;7.232;2022-07-06T07:36:24;6.20;;;1.93;;
20173;SDS011;10246;50.620;7.232;2022-07-06T07:38:53;2.63;;;1.73;;
20173;SDS011;10246;50.620;7.232;2022-07-06T07:41:19;2.13;;;1.63;;
20173;SDS011;10246;50.620;7.232;2022-07-06T07:43:46;3.03;;;1.50;;
20173;SDS011;10246;50.620;7.232;2022-07-06T07:46:13;4.43;;;1.40;;
20173;SDS011;10246;50.620;7.232;2022-07-06T07:48:41;3.03;;;1.70;;
20173;SDS011;10246;50.620;7.232;2022-07-06T07:51:07;3.20;;;1.90;;
20173;SDS011;10246;50.620;7.232;2022-07-06T07:53:34;2.80;;;1.70;;
20173;SDS011;10246;50.620;7.232;2022-07-06T07:56:03;3.97;;;1.70;;
20173;SDS011;10246;50.620;7.232;2022-07-06T07:58:30;3.70;;;1.63;;
20173;SDS011;10246;50.620;7.232;2022-07-06T08:00:57;3.97;;;1.20;;
20173;SDS011;10246;50.620;7.232;2022-07-06T08:03:24;4.80;;;1.73;;
20173;SDS011;10246;50.620;7.232;2022-07-06T08:05:50;5.33;;;1.67;;
20173;SDS011;10246;50.620;7.232;2022-07-06T08:08:17;2.50;;;1.10;;
20173;SDS011;10246;50.620;7.232;2022-07-06T08:10:45;3.77;;;1.57;;
20173;SDS011;10246;50.620;7.232;2022-07-06T08:13:13;2.60;;;1.57;;
20173;SDS011;10246;50.620;7.232;2022-07-06T08:15:40;4.40;;;1.40;;
20173;SDS011;10246;50.620;7.232;2022-07-06T08:18:08;2.97;;;1.47;;
20173;SDS011;10246;50.620;7.232;2022-07-06T08:20:36;3.97;;;1.23;;
20173;SDS011;10246;50.620;7.232;2022-07-06T08:23:03;4.77;;;1.50;;
20173;SDS011;10246;50.620;7.232;2022-07-06T08:25:30;1.97;;;1.10;;
20173;SDS011;10246;50.620;7.232;2022-07-06T08:27:57;2.57;;;1.37;;
20173;SDS011;10246;50.620;7.232;2022-07-06T08:30:25;2.97;;;1.37;;
20173;SDS011;10246;50.620;7.232;2022-07-06T08:32:52;4.13;;;1.60;;
20173;SDS011;10246;50.620;7.232;2022-07-06T08:35:19;3.40;;;1.47;;
20173;SDS011;10246;50.620;7.232;2022-07-06T08:37:46;4.10;;;1.53;;
20173;SDS011;10246;50.620;7.232;2022-07-06T08:40:12;3.23;;;1.30;;
20173;SDS011;10246;50.620;7.232;2022-07-06T08:42:39;3.13;;;1.27;;
20173;SDS011;10246;50.620;7.232;2022-07-06T08:45:07;2.63;;;1.20;;
20173;SDS011;10246;50.620;7.232;2022-07-06T08:47:36;2.10;;;1.30;;
20173;SDS011;10246;50.620;7.232;2022-07-06T08:50:04;1.87;;;1.00;;
20173;SDS011;10246;50.620;7.232;2022-07-06T08:52:33;2.07;;;1.27;;
20173;SDS011;10246;50.620;7.232;2022-07-06T08:55:00;3.33;;;1.10;;
20173;SDS011;10246;50.620;7.232;2022-07-06T08:57:29;1.97;;;1.20;;
20173;SDS011;10246;50.620;7.232;2022-07-06T08:59:56;3.20;;;1.30;;
20173;SDS011;10246;50.620;7.232;2022-07-06T09:02:23;1.97;;;1.30;;
20173;SDS011;10246;50.620;7.232;2022-07-06T09:04:54;3.00;;;1.33;;
20173;SDS011;10246;50.620;7.232;2022-07-06T09:07:22;2.60;;;1.50;;
20173;SDS011;10246;50.620;7.232;2022-07-06T09:09:49;3.87;;;1.70;;
20173;SDS011;10246;50.620;7.232;2022-07-06T09:12:18;3.57;;;1.80;;
20173;SDS011;10246;50.620;7.232;2022-07-06T09:14:44;3.13;;;2.00;;
20173;SDS011;10246;50.620;7.232;2022-07-06T09:17:11;3.83;;;1.63;;
20173;SDS011;10246;50.620;7.232;2022-07-06T09:19:38;4.90;;;1.83;;
20173;SDS011;10246;50.620;7.232;2022-07-06T09:22:07;3.47;;;1.70;;
20173;SDS011;10246;50.620;7.232;2022-07-06T09:24:35;3.63;;;2.00;;
20173;SDS011;10246;50.620;7.232;2022-07-06T09:27:14;5.90;;;2.00;;
20173;SDS011;10246;50.620;7.232;2022-07-06T09:29:43;3.20;;;2.27;;
20173;SDS011;10246;50.620;7.232;2022-07-06T09:32:11;3.83;;;2.23;;
20173;SDS011;10246;50.620;7.232;2022-07-06T09:34:41;4.70;;;2.40;;
20173;SDS011;10246;50.620;7.232;2022-07-06T09:37:11;7.70;;;2.30;;
20173;SDS011;10246;50.620;7.232;2022-07-06T09:39:38;3.93;;;2.10;;
20173;SDS011;10246;50.620;7.232;2022-07-06T09:42:06;4.93;;;2.33;;
20173;SDS011;10246;50.620;7.232;2022-07-06T09:44:34;2.57;;;2.10;;
20173;SDS011;10246;50.620;7.232;2022-07-06T09:47:03;3.67;;;2.20;;
20173;SDS011;10246;50.620;7.232;2022-07-06T09:49:32;3.73;;;2.27;;
20173;SDS011;10246;50.620;7.232;2022-07-06T09:51:59;2.07;;;1.80;;
20173;SDS011;10246;50.620;7.232;2022-07-06T09:54:29;2.23;;;1.67;;
20173;SDS011;10246;50.620;7.232;2022-07-06T09:56:57;3.67;;;1.70;;
20173;SDS011;10246;50.620;7.232;2022-07-06T09:59:24;4.23;;;1.77;;
20173;SDS011;10246;50.620;7.232;2022-07-06T10:01:53;4.43;;;1.83;;
20173;SDS011;10246;50.620;7.232;2022-07-06T10:04:21;2.00;;;1.33;;
20173;SDS011;10246;50.620;7.232;2022-07-06T10:06:49;2.80;;;1.40;;
20173;SDS011;10246;50.620;7.232;2022-07-06T10:09:18;1.97;;;1.27;;
20173;SDS011;10246;50.620;7.232;2022-07-06T10:11:48;2.43;;;1.30;;
20173;SDS011;10246;50.620;7.232;2022-07-06T10:14:17;4.73;;;1.33;;
20173;SDS011;10246;50.620;7.232;2022-07-06T10:16:47;1.93;;;1.40;;
20173;SDS011;10246;50.620;7.232;2022-07-06T10:19:14;3.20;;;1.50;;
20173;SDS011;10246;50.620;7.232;2022-07-06T10:21:43;3.57;;;1.67;;
20173;SDS011;10246;50.620;7.232;2022-07-06T10:24:10;2.40;;;1.43;;
20173;SDS011;10246;50.620;7.232;2022-07-06T10:26:38;1.60;;;0.90;;
20173;SDS011;10246;50.620;7.232;2022-07-06T10:29:07;5.00;;;1.60;;
20173;SDS011;10246;50.620;7.232;2022-07-06T10:31:34;3.03;;;1.53;;
20173;SDS011;10246;50.620;7.232;2022-07-06T10:34:05;2.07;;;1.40;;
20173;SDS011;10246;50.620;7.232;2022-07-06T10:36:36;2.67;;;1.43;;
20173;SDS011;10246;50.620;7.232;2022-07-06T10:39:04;2.47;;;1.63;;
20173;SDS011;10246;50.620;7.232;2022-07-06T10:41:50;2.90;;;1.87;;
20173;SDS011;10246;50.620;7.232;2022-07-06T10:44:19;2.30;;;2.10;;
20173;SDS011;10246;50.620;7.232;2022-07-06T10:46:52;4.07;;;2.20;;
20173;SDS011;10246;50.620;7.232;2022-07-06T10:49:20;3.50;;;1.87;;
20173;SDS011;10246;50.620;7.232;2022-07-06T10:51:48;2.80;;;2.00;;
20173;SDS011;10246;50.620;7.232;2022-07-06T10:54:16;2.60;;;2.00;;
20173;SDS011;10246;50.620;7.232;2022-07-06T10:56:45;5.40;;;2.10;;
20173;SDS011;10246;50.620;7.232;2022-07-06T10:59:13;4.47;;;1.70;;
20173;SDS011;10246;50.620;7.232;2022-07-06T11:02:10;5.77;;;2.40;;
20173;SDS011;10246;50.620;7.232;2022-07-06T11:04:40;4.07;;;1.90;;
20173;SDS011;10246;50.620;7.232;2022-07-06T11:07:08;2.20;;;1.87;;
20173;SDS011;10246;50.620;7.232;2022-07-06T11:09:36;4.50;;;1.70;;
20173;SDS011;10246;50.620;7.232;2022-07-06T11:12:14;2.70;;;1.63;;
20173;SDS011;10246;50.620;7.232;2022-07-06T11:14:43;1.77;;;1.40;;
20173;SDS011;10246;50.620;7.232;2022-07-06T11:17:12;3.17;;;1.70;;
20173;SDS011;10246;50.620;7.232;2022-07-06T11:19:47;3.90;;;2.00;;
20173;SDS011;10246;50.620;7.232;2022-07-06T11:22:15;2.87;;;1.80;;
20173;SDS011;10246;50.620;7.232;2022-07-06T11:24:44;5.47;;;1.87;;
20173;SDS011;10246;50.620;7.232;2022-07-06T11:27:11;3.33;;;1.57;;
20173;SDS011;10246;50.620;7.232;2022-07-06T11:29:38;2.07;;;1.57;;
20173;SDS011;10246;50.620;7.232;2022-07-06T11:32:06;2.20;;;1.73;;
20173;SDS011;10246;50.620;7.232;2022-07-06T11:34:37;3.27;;;1.40;;
20173;SDS011;10246;50.620;7.232;2022-07-06T11:37:06;1.50;;;1.23;;
20173;SDS011;10246;50.620;7.232;2022-07-06T11:39:35;2.80;;;1.60;;
20173;SDS011;10246;50.620;7.232;2022-07-06T11:42:05;3.90;;;2.00;;
20173;SDS011;10246;50.620;7.232;2022-07-06T11:44:32;2.17;;;1.60;;
20173;SDS011;10246;50.620;7.232;2022-07-06T11:46:59;5.20;;;2.10;;
20173;SDS011;10246;50.620;7.232;2022-07-06T11:49:28;1.90;;;1.70;;
20173;SDS011;10246;50.620;7.232;2022-07-06T11:51:57;2.33;;;1.70;;
20173;SDS011;10246;50.620;7.232;2022-07-06T11:54:25;3.13;;;2.00;;
20173;SDS011;10246;50.620;7.232;2022-07-06T11:56:52;4.43;;;1.80;;
20173;SDS011;10246;50.620;7.232;2022-07-06T11:59:21;1.60;;;1.50;;
20173;SDS011;10246;50.620;7.232;2022-07-06T12:01:48;1.93;;;1.73;;
20173;SDS011;10246;50.620;7.232;2022-07-06T12:04:16;2.37;;;1.80;;
20173;SDS011;10246;50.620;7.232;2022-07-06T12:06:43;4.83;;;2.07;;
20173;SDS011;10246;50.620;7.232;2022-07-06T12:09:12;2.40;;;1.90;;
20173;SDS011;10246;50.620;7.232;2022-07-06T12:11:40;2.93;;;1.63;;
20173;SDS011;10246;50.620;7.232;2022-07-06T12:14:15;3.80;;;1.70;;
20173;SDS011;10246;50.620;7.232;2022-07-06T12:16:42;1.50;;;1.40;;
20173;SDS011;10246;50.620;7.232;2022-07-06T12:19:10;2.87;;;1.50;;
20173;SDS011;10246;50.620;7.232;2022-07-06T12:21:41;1.73;;;1.20;;
20173;SDS011;10246;50.620;7.232;2022-07-06T12:24:09;2.23;;;1.17;;
20173;SDS011;10246;50.620;7.232;2022-07-06T12:26:40;4.07;;;1.30;;
20173;SDS011;10246;50.620;7.232;2022-07-06T12:29:07;1.27;;;0.93;;
20173;SDS011;10246;50.620;7.232;2022-07-06T12:31:36;3.53;;;1.20;;
20173;SDS011;10246;50.620;7.232;2022-07-06T12:34:04;2.40;;;1.07;;
20173;SDS011;10246;50.620;7.232;2022-07-06T12:36:32;2.40;;;1.40;;
20173;SDS011;10246;50.620;7.232;2022-07-06T12:39:10;1.57;;;0.90;;
20173;SDS011;10246;50.620;7.232;2022-07-06T12:41:43;2.93;;;1.10;;
20173;SDS011;10246;50.620;7.232;2022-07-06T12:44:12;3.10;;;0.90;;
20173;SDS011;10246;50.620;7.232;2022-07-06T12:46:39;1.67;;;1.17;;
20173;SDS011;10246;50.620;7.232;2022-07-06T12:49:11;2.63;;;1.03;;
20173;SDS011;10246;50.620;7.232;2022-07-06T12:51:50;1.40;;;0.90;;
20173;SDS011;10246;50.620;7.232;2022-07-06T12:54:21;1.30;;;1.10;;
20173;SDS011;10246;50.620;7.232;2022-07-06T12:59:42;3.93;;;0.80;;
20173;SDS011;10246;50.620;7.232;2022-07-06T13:02:17;1.90;;;0.73;;
20173;SDS011;10246;50.620;7.232;2022-07-06T13:04:56;1.63;;;1.00;;
20173;SDS011;10246;50.620;7.232;2022-07-06T13:07:26;1.67;;;0.90;;
20173;SDS011;10246;50.620;7.232;2022-07-06T13:09:53;2.03;;;0.90;;
20173;SDS011;10246;50.620;7.232;2022-07-06T13:12:22;2.87;;;1.00;;
20173;SDS011;10246;50.620;7.232;2022-07-06T13:14:49;4.00;;;1.05;;
20173;SDS011;10246;50.620;7.232;2022-07-06T13:17:16;1.00;;;0.80;;
20173;SDS011;10246;50.620;7.232;2022-07-06T13:19:43;1.87;;;0.90;;
20173;SDS011;10246;50.620;7.232;2022-07-06T13:22:10;0.80;;;0.80;;
20173;SDS011;10246;50.620;7.232;2022-07-06T13:24:37;2.80;;;1.10;;
20173;SDS011;10246;50.620;7.232;2022-07-06T13:27:05;2.13;;;1.03;;
20173;SDS011;10246;50.620;7.232;2022-07-06T13:29:34;3.00;;;1.00;;
20173;SDS011;10246;50.620;7.232;2022-07-06T13:32:01;1.97;;;1.20;;
20173;SDS011;10246;50.620;7.232;2022-07-06T13:34:28;1.60;;;0.80;;
20173;SDS011;10246;50.620;7.232;2022-07-06T13:36:55;1.37;;;0.97;;
20173;SDS011;10246;50.620;7.232;2022-07-06T13:39:22;1.70;;;1.10;;
20173;SDS011;10246;50.620;7.232;2022-07-06T13:41:52;1.30;;;1.00;;
20173;SDS011;10246;50.620;7.232;2022-07-06T13:44:19;5.30;;;1.50;;
20173;SDS011;10246;50.620;7.232;2022-07-06T13:46:47;1.60;;;1.20;;
20173;SDS011;10246;50.620;7.232;2022-07-06T13:49:14;2.30;;;0.97;;
20173;SDS011;10246;50.620;7.232;2022-07-06T13:51:42;1.77;;;1.03;;
20173;SDS011;10246;50.620;7.232;2022-07-06T13:54:09;2.37;;;0.90;;
20173;SDS011;10246;50.620;7.232;2022-07-06T13:56:36;1.27;;;0.90;;
20173;SDS011;10246;50.620;7.232;2022-07-06T13:59:04;3.03;;;1.03;;
20173;SDS011;10246;50.620;7.232;2022-07-06T14:01:31;1.03;;;0.90;;
20173;SDS011;10246;50.620;7.232;2022-07-06T14:03:59;1.30;;;0.90;;
20173;SDS011;10246;50.620;7.232;2022-07-06T14:06:26;2.30;;;1.13;;
20173;SDS011;10246;50.620;7.232;2022-07-06T14:08:53;1.60;;;1.20;;
20173;SDS011;10246;50.620;7.232;2022-07-06T14:11:19;2.70;;;1.10;;
20173;SDS011;10246;50.620;7.232;2022-07-06T14:13:46;1.77;;;0.83;;
20173;SDS011;10246;50.620;7.232;2022-07-06T14:16:13;3.47;;;1.00;;
20173;SDS011;10246;50.620;7.232;2022-07-06T14:18:40;1.67;;;1.07;;
20173;SDS011;10246;50.620;7.232;2022-07-06T14:21:09;3.93;;;0.90;;
20173;SDS011;10246;50.620;7.232;2022-07-06T14:23:36;5.30;;;1.23;;
20173;SDS011;10246;50.620;7.232;2022-07-06T14:26:03;3.30;;;0.80;;
20173;SDS011;10246;50.620;7.232;2022-07-06T14:28:30;0.83;;;0.80;;
20173;SDS011;10246;50.620;7.232;2022-07-06T14:30:56;2.40;;;1.03;;
20173;SDS011;10246;50.620;7.232;2022-07-06T14:33:26;0.80;;;0.80;;
20173;SDS011;10246;50.620;7.232;2022-07-06T14:35:53;2.10;;;1.10;;
20173;SDS011;10246;50.620;7.232;2022-07-06T14:38:22;1.67;;;0.90;;
20173;SDS011;10246;50.620;7.232;2022-07-06T14:40:49;1.42;;;1.15;;
20173;SDS011;10246;50.620;7.232;2022-07-06T14:43:16;1.63;;;0.90;;
20173;SDS011;10246;50.620;7.232;2022-07-06T14:45:43;2.70;;;1.00;;
20173;SDS011;10246;50.620;7.232;2022-07-06T14:48:10;2.87;;;1.10;;
20173;SDS011;10246;50.620;7.232;2022-07-06T14:50:37;2.80;;;1.10;;
20173;SDS011;10246;50.620;7.232;2022-07-06T14:53:04;2.43;;;1.20;;
20173;SDS011;10246;50.620;7.232;2022-07-06T14:55:33;1.23;;;0.90;;